Time;durP1;ratioP1;P1;durP2;ratioP2;P2;SDS_P1;SDS_P2;PMS_P1;PMS_P2;Temp;Humidity;BMP_temperature;BMP_pressure;BME280_temperature;BME280_humidity;BME280_pressure;Samples;Min_cycle;Max_cycle;Signal;HPM_P1;HPM_P2
2022/01/01 00:00:29;;;;;;;6.57;3.90;;;;;;;19.20;51.78;101367.44;4169650;28;20091;-54
2022/01/01 00:02:30;;;;;;;8.13;3.92;;;;;;;19.15;51.89;101345.19;4169295;28;20029;-51
2022/01/01 00:04:35;;;;;;;7.72;3.85;;;;;;;19.22;51.86;101348.56;4180307;28;20090;-52
2022/01/01 00:06:37;;;;;;;8.38;3.90;;;;;;;19.19;52.35;101360.19;4178017;28;20056;-49
2022/01/01 00:08:38;;;;;;;5.88;3.80;;;;;;;19.24;52.02;101374.16;4171992;28;20098;-52
2022/01/01 00:10:39;;;;;;;10.38;4.25;;;;;;;19.27;52.42;101384.69;4174037;28;20049;-52
2022/01/01 00:12:46;;;;;;;8.77;3.92;;;;;;;19.28;52.32;101355.84;4168667;28;20438;-48
2022/01/01 00:14:47;;;;;;;11.00;3.55;;;;;;;19.33;52.62;101357.00;4173868;28;20048;-51
2022/01/01 00:16:49;;;;;;;7.82;3.83;;;;;;;19.35;52.41;101357.59;4171026;28;20045;-52
2022/01/01 00:18:50;;;;;;;8.98;4.05;;;;;;;19.39;52.45;101358.75;4172891;28;20430;-51
2022/01/01 00:20:52;;;;;;;12.25;4.00;;;;;;;19.41;52.61;101373.22;4173630;28;21147;-50
2022/01/01 00:22:53;;;;;;;10.35;4.88;;;;;;;19.45;52.42;101375.19;4177918;28;20493;-51
2022/01/01 00:24:55;;;;;;;8.13;4.07;;;;;;;19.48;52.51;101357.19;4171726;28;20523;-53
2022/01/01 00:26:56;;;;;;;10.88;4.57;;;;;;;19.51;52.18;101357.50;4176779;28;20427;-52
2022/01/01 00:28:57;;;;;;;8.40;3.63;;;;;;;19.53;52.18;101365.56;4174525;28;20443;-49
2022/01/01 00:30:59;;;;;;;10.15;4.05;;;;;;;19.56;51.91;101378.91;4172560;28;20469;-50
2022/01/01 00:33:00;;;;;;;9.18;4.63;;;;;;;19.57;51.75;101361.19;4177812;28;20557;-50
2022/01/01 00:35:02;;;;;;;8.35;4.20;;;;;;;19.61;51.69;101361.50;4174401;28;20090;-47
2022/01/01 00:37:04;;;;;;;10.05;3.97;;;;;;;19.59;51.78;101347.88;4180559;28;20439;-49
2022/01/01 00:39:06;;;;;;;8.52;3.80;;;;;;;19.62;51.67;101352.94;4178578;28;20090;-55
2022/01/01 00:41:07;;;;;;;9.30;3.95;;;;;;;19.63;51.69;101354.59;4172046;28;20107;-48
2022/01/01 00:43:08;;;;;;;10.15;4.15;;;;;;;19.65;52.30;101369.06;4178431;28;20044;-51
2022/01/01 00:45:10;;;;;;;6.30;3.47;;;;;;;19.66;52.08;101373.53;4178657;28;20046;-52
2022/01/01 00:47:11;;;;;;;10.57;4.25;;;;;;;19.68;52.08;101374.09;4174961;28;20033;-53
2022/01/01 00:49:13;;;;;;;7.65;4.13;;;;;;;19.71;52.35;101379.13;4181520;28;20053;-46
2022/01/01 00:51:14;;;;;;;7.97;3.95;;;;;;;19.71;51.93;101379.13;4171613;28;20132;-51
2022/01/01 00:53:16;;;;;;;8.88;4.43;;;;;;;19.74;51.91;101356.38;4178110;28;20472;-52
2022/01/01 00:55:20;;;;;;;10.60;3.95;;;;;;;19.71;51.92;101329.16;4177839;28;20469;-51
2022/01/01 00:57:21;;;;;;;6.35;4.13;;;;;;;19.76;51.80;101326.41;4179052;28;20102;-55
2022/01/01 00:59:27;;;;;;;10.25;4.60;;;;;;;19.68;51.87;101312.16;4179608;28;20044;-51
2022/01/01 01:01:28;;;;;;;7.03;3.78;;;;;;;19.78;51.49;101340.84;4174957;28;20044;-50
2022/01/01 01:03:33;;;;;;;11.10;4.03;;;;;;;19.79;51.48;101325.91;4182737;28;20045;-56
2022/01/01 01:05:34;;;;;;;8.50;4.03;;;;;;;19.80;51.58;101302.56;4174454;28;20045;-53
2022/01/01 01:07:38;;;;;;;7.88;4.20;;;;;;;19.80;51.56;101288.69;4178742;28;20282;-49
2022/01/01 01:09:39;;;;;;;7.78;3.95;;;;;;;19.82;51.47;101293.97;4178547;28;20049;-50
2022/01/01 01:11:44;;;;;;;7.78;3.83;;;;;;;19.83;51.30;101308.69;4174508;28;20098;-51
2022/01/01 01:13:55;;;;;;;10.77;4.32;;;;;;;19.86;51.38;101319.28;4178288;28;20045;-51
2022/01/01 01:15:56;;;;;;;7.57;4.32;;;;;;;19.86;51.79;101313.72;4171640;28;20045;-51
2022/01/01 01:17:59;;;;;;;13.70;4.43;;;;;;;19.84;51.84;101304.81;4179141;28;20091;-51
2022/01/01 01:20:00;;;;;;;11.80;4.38;;;;;;;19.89;51.15;101313.19;4170334;28;20045;-51
2022/01/01 01:22:02;;;;;;;9.00;3.75;;;;;;;19.88;51.30;101300.41;4174578;28;20040;-49
2022/01/01 01:24:03;;;;;;;7.65;4.32;;;;;;;19.89;51.38;101293.75;4174244;28;20088;-48
2022/01/01 01:26:06;;;;;;;6.93;3.83;;;;;;;19.89;51.38;101288.22;4173431;28;20045;-50
2022/01/01 01:28:13;;;;;;;9.15;4.22;;;;;;;19.90;51.39;101281.53;4170615;28;20107;-50
2022/01/01 01:30:16;;;;;;;12.07;4.60;;;;;;;19.90;51.80;101264.88;4179261;28;20094;-50
2022/01/01 01:32:17;;;;;;;7.13;4.22;;;;;;;19.86;51.57;101252.63;4166814;28;20103;-51
2022/01/01 01:34:19;;;;;;;10.10;4.47;;;;;;;19.93;51.44;101273.53;4177478;28;20059;-54
2022/01/01 01:36:23;;;;;;;7.32;3.90;;;;;;;19.95;51.36;101278.81;4176918;28;20044;-48
2022/01/01 01:38:27;;;;;;;8.75;4.25;;;;;;;19.96;51.43;101263.81;4179395;28;20128;-48
2022/01/01 01:40:29;;;;;;;10.07;4.55;;;;;;;19.96;51.38;101269.34;4174658;28;20110;-50
2022/01/01 01:42:31;;;;;;;6.20;4.60;;;;;;;19.92;51.62;101274.59;4176510;28;20554;-49
2022/01/01 01:44:41;;;;;;;10.55;4.55;;;;;;;19.97;51.39;101271.03;4165700;28;20103;-49
2022/01/01 01:46:43;;;;;;;8.73;4.25;;;;;;;19.98;51.62;101278.28;4174961;28;20426;-49
2022/01/01 01:48:46;;;;;;;9.75;4.43;;;;;;;19.99;51.26;101279.94;4169524;28;20021;-51
2022/01/01 01:50:47;;;;;;;6.53;4.35;;;;;;;19.97;51.25;101266.31;4177642;28;20045;-49
2022/01/01 01:52:51;;;;;;;12.20;4.93;;;;;;;19.99;51.55;101274.38;4175215;28;20041;-49
2022/01/01 01:54:53;;;;;;;7.45;4.22;;;;;;;20.00;51.18;101276.06;4169773;28;20095;-47
2022/01/01 01:56:54;;;;;;;8.13;4.75;;;;;;;20.01;51.28;101272.16;4174006;28;20036;-47
2022/01/01 01:58:56;;;;;;;9.10;4.70;;;;;;;19.98;51.38;101264.38;4180377;28;20098;-48
2022/01/01 02:01:20;;;;;;;6.93;4.70;;;;;;;20.02;51.27;101273.84;4176428;28;20091;-48
2022/01/01 02:03:22;;;;;;;8.60;4.65;;;;;;;20.04;51.30;101257.75;4179460;28;20049;-48
2022/01/01 02:05:26;;;;;;;8.68;4.45;;;;;;;20.05;51.49;101248.31;4171929;28;20075;-52
2022/01/01 02:07:27;;;;;;;9.48;4.88;;;;;;;20.05;51.53;101253.88;4174736;28;20208;-48
2022/01/01 02:09:29;;;;;;;9.73;5.10;;;;;;;20.05;51.40;101237.19;4171956;28;20095;-49
2022/01/01 02:11:32;;;;;;;8.32;4.45;;;;;;;20.06;51.60;101255.53;4172269;28;20032;-47
2022/01/01 02:13:46;;;;;;;8.95;4.70;;;;;;;20.07;51.74;101257.22;4170979;28;20477;-47
2022/01/01 02:17:54;;;;;;;8.43;4.95;;;;;;;20.08;51.67;101256.13;4172612;28;20102;-57
2022/01/01 02:20:06;;;;;;;9.50;4.40;;;;;;;20.06;51.46;101256.38;4169647;28;20029;-57
2022/01/01 02:22:08;;;;;;;8.07;4.78;;;;;;;20.08;51.67;101260.84;4164881;28;20060;-48
2022/01/01 02:24:13;;;;;;;8.15;4.43;;;;;;;20.09;51.72;101257.78;4173985;28;20044;-54
2022/01/01 02:26:16;;;;;;;8.50;4.75;;;;;;;20.10;51.68;101270.56;4174165;28;20102;-50
2022/01/01 02:28:18;;;;;;;9.50;4.70;;;;;;;20.10;51.38;101273.34;4173692;28;20430;-53
2022/01/01 02:30:20;;;;;;;7.90;4.57;;;;;;;20.10;51.78;101267.78;4172788;28;20037;-55
2022/01/01 02:32:21;;;;;;;8.10;5.45;;;;;;;20.08;51.67;101264.44;4176614;28;20045;-51
2022/01/01 02:34:23;;;;;;;9.48;4.28;;;;;;;20.09;51.49;101273.63;4170759;28;20488;-50
2022/01/01 02:36:36;;;;;;;7.30;4.30;;;;;;;20.13;51.38;101270.03;4180109;28;20025;-51
2022/01/01 02:38:38;;;;;;;7.63;5.20;;;;;;;20.15;51.38;101261.44;4176141;28;20083;-55
2022/01/01 02:40:39;;;;;;;8.55;5.25;;;;;;;20.16;51.29;101247.28;4166225;28;20068;-52
2022/01/01 02:42:42;;;;;;;9.43;6.03;;;;;;;20.16;50.96;101247.28;4179404;28;20040;-54
2022/01/01 02:44:44;;;;;;;10.93;4.90;;;;;;;20.16;51.28;101247.28;4174561;28;20037;-52
2022/01/01 02:46:45;;;;;;;9.02;4.75;;;;;;;20.13;51.03;101241.41;4178954;28;20102;-48
2022/01/01 02:48:47;;;;;;;8.80;4.82;;;;;;;20.15;51.05;101244.75;4176668;28;20107;-51
2022/01/01 02:50:51;;;;;;;7.82;4.82;;;;;;;20.18;51.24;101269.25;4174245;28;20382;-54
2022/01/01 02:52:52;;;;;;;6.97;4.50;;;;;;;20.19;51.23;101257.84;4170377;28;21588;-49
2022/01/01 02:54:53;;;;;;;8.73;5.30;;;;;;;20.18;51.13;101250.63;4170866;28;20103;-54
2022/01/01 02:56:55;;;;;;;8.00;4.53;;;;;;;20.18;51.08;101238.66;4171721;28;20098;-54
2022/01/01 02:58:56;;;;;;;10.55;5.55;;;;;;;20.17;51.00;101232.28;4168570;28;20094;-52
2022/01/01 03:00:58;;;;;;;8.45;4.93;;;;;;;20.22;50.96;101231.47;4174329;28;20063;-52
2022/01/01 03:02:59;;;;;;;10.65;5.20;;;;;;;20.19;50.71;101218.94;4174337;28;20040;-51
2022/01/01 03:05:01;;;;;;;7.15;4.70;;;;;;;20.20;51.08;101225.34;4169129;28;20045;-55
2022/01/01 03:07:02;;;;;;;9.93;5.00;;;;;;;20.16;50.71;101227.84;4171990;28;20090;-51
2022/01/01 03:09:04;;;;;;;9.93;5.00;;;;;;;20.23;50.49;101224.81;4154811;28;20108;-50
2022/01/01 03:11:06;;;;;;;6.63;4.60;;;;;;;20.23;50.76;101224.81;4166227;28;20049;-48
2022/01/01 03:13:07;;;;;;;6.88;4.75;;;;;;;20.25;50.19;101211.47;4169479;28;20041;-53
2022/01/01 03:15:09;;;;;;;9.13;4.82;;;;;;;20.24;50.89;101204.25;4173450;28;20103;-54
2022/01/01 03:17:11;;;;;;;6.90;4.82;;;;;;;20.24;50.91;101196.72;4174405;28;20513;-48
2022/01/01 03:19:12;;;;;;;9.68;4.80;;;;;;;20.23;51.00;101192.28;4177076;28;20037;-50
2022/01/01 03:21:14;;;;;;;10.52;4.65;;;;;;;20.24;50.83;101221.75;4173313;28;20083;-51
2022/01/01 03:23:15;;;;;;;7.97;5.18;;;;;;;20.22;50.92;101218.41;4174704;28;20041;-54
2022/01/01 03:25:17;;;;;;;7.45;4.70;;;;;;;20.24;51.27;101220.91;4178895;28;20040;-53
2022/01/01 03:27:18;;;;;;;10.10;5.03;;;;;;;20.24;51.07;101210.63;4173160;28;20092;-48
2022/01/01 03:29:20;;;;;;;9.65;5.38;;;;;;;20.26;50.64;101214.00;4177529;28;20044;-50
2022/01/01 03:31:23;;;;;;;8.80;4.93;;;;;;;20.28;50.90;101222.88;4173014;28;20381;-54
2022/01/01 03:33:28;;;;;;;8.80;4.47;;;;;;;20.30;50.52;101219.84;4172401;28;20049;-53
2022/01/01 03:35:29;;;;;;;5.85;4.28;;;;;;;20.24;50.79;101213.41;4176787;28;20411;-46
2022/01/01 03:37:31;;;;;;;6.60;4.68;;;;;;;20.28;50.53;101211.75;4172747;28;20087;-52
2022/01/01 03:39:32;;;;;;;8.52;4.82;;;;;;;20.28;51.14;101205.38;4170129;28;20094;-51
2022/01/01 03:41:34;;;;;;;8.27;4.68;;;;;;;20.28;50.98;101202.59;4171556;28;20040;-48
2022/01/01 03:43:35;;;;;;;10.13;5.22;;;;;;;20.30;50.74;101215.13;4169994;28;20036;-50
2022/01/01 03:45:36;;;;;;;9.07;4.95;;;;;;;20.31;50.90;101227.91;4173061;28;20025;-48
2022/01/01 03:47:38;;;;;;;8.98;5.10;;;;;;;20.31;50.83;101233.47;4174277;28;20098;-48
2022/01/01 03:49:40;;;;;;;9.57;5.35;;;;;;;20.23;50.72;101220.06;4172409;28;20028;-51
2022/01/01 03:51:41;;;;;;;7.10;4.97;;;;;;;20.29;50.99;101244.00;4177253;28;20053;-51
2022/01/01 03:53:43;;;;;;;9.90;5.25;;;;;;;20.30;50.76;101251.25;4180612;28;20488;-46
2022/01/01 03:55:45;;;;;;;9.20;5.22;;;;;;;20.29;51.21;101245.94;4173270;28;21616;-50
2022/01/01 03:57:46;;;;;;;9.13;5.30;;;;;;;20.30;51.02;101236.53;4176316;28;20094;-48
2022/01/01 03:59:50;;;;;;;13.60;5.93;;;;;;;20.31;50.91;101246.53;4173247;28;20098;-47
2022/01/01 04:01:55;;;;;;;9.70;6.15;;;;;;;20.31;50.90;101238.19;4176915;28;20036;-48
2022/01/01 04:04:02;;;;;;;9.48;5.32;;;;;;;20.33;50.76;101237.91;4179187;28;20032;-50
2022/01/01 04:06:06;;;;;;;8.57;5.53;;;;;;;20.33;51.00;101232.34;4174648;28;20025;-50
2022/01/01 04:08:09;;;;;;;14.10;6.00;;;;;;;20.31;50.84;101216.78;4171952;28;20094;-48
2022/01/01 04:10:10;;;;;;;10.35;5.90;;;;;;;20.31;50.91;101230.69;4178459;28;20090;-50
2022/01/01 04:12:12;;;;;;;9.40;6.47;;;;;;;20.32;50.54;101234.31;4176056;28;20492;-48
2022/01/01 04:14:15;;;;;;;9.63;6.05;;;;;;;20.31;50.68;101233.47;4179182;28;20090;-52
2022/01/01 04:16:18;;;;;;;11.77;6.80;;;;;;;20.29;50.81;101232.88;4179223;28;20056;-46
2022/01/01 04:18:28;;;;;;;13.05;6.82;;;;;;;20.30;50.54;101240.16;4179497;28;20122;-47
2022/01/01 04:20:30;;;;;;;12.10;6.40;;;;;;;20.30;50.72;101234.59;4178918;28;20122;-49
2022/01/01 04:22:31;;;;;;;9.23;6.00;;;;;;;20.28;50.84;101202.59;4175334;28;20040;-47
2022/01/01 04:24:37;;;;;;;11.13;5.95;;;;;;;20.29;50.52;101207.88;4168727;28;20487;-49
2022/01/01 04:26:39;;;;;;;8.65;5.43;;;;;;;20.29;51.05;101207.88;4173870;28;20079;-48
2022/01/01 04:28:41;;;;;;;9.38;5.63;;;;;;;20.23;50.90;101206.19;4173099;28;20041;-51
2022/01/01 04:30:43;;;;;;;10.48;6.15;;;;;;;20.30;50.86;101203.19;4175143;28;20056;-47
2022/01/01 04:32:47;;;;;;;9.85;5.90;;;;;;;20.27;50.77;101164.81;4165966;28;20045;-49
2022/01/01 04:34:49;;;;;;;10.40;5.88;;;;;;;20.25;50.52;101145.63;4172209;28;20094;-50
2022/01/01 04:37:01;;;;;;;8.25;5.07;;;;;;;20.27;50.73;101145.34;4179837;28;20041;-53
2022/01/01 04:39:03;;;;;;;11.27;5.90;;;;;;;20.26;50.84;101141.75;4175957;28;20090;-55
2022/01/01 04:41:06;;;;;;;12.02;6.15;;;;;;;20.26;51.07;101122.28;4169814;28;20033;-56
2022/01/01 04:43:07;;;;;;;10.55;6.00;;;;;;;20.26;51.01;101135.34;4175782;28;20029;-50
2022/01/01 04:45:09;;;;;;;10.15;6.28;;;;;;;20.24;51.17;101126.44;4175839;28;20087;-51
2022/01/01 04:47:11;;;;;;;10.65;5.75;;;;;;;20.23;51.17;101130.31;4174752;28;20037;-49
2022/01/01 04:49:12;;;;;;;11.63;5.97;;;;;;;20.28;50.88;101139.50;4168830;28;20162;-48
2022/01/01 04:51:14;;;;;;;9.98;6.35;;;;;;;20.25;51.27;101145.63;4174840;28;20103;-49
2022/01/01 04:53:17;;;;;;;8.75;5.90;;;;;;;20.24;51.38;101138.38;4177708;28;20110;-49
2022/01/01 04:55:19;;;;;;;12.70;5.97;;;;;;;20.23;51.13;101128.38;4174828;28;20024;-51
2022/01/01 04:57:24;;;;;;;9.20;6.05;;;;;;;20.24;51.02;101141.16;4164917;28;20046;-49
2022/01/01 04:59:28;;;;;;;10.30;6.00;;;;;;;20.22;51.48;101134.22;4175346;28;20493;-49
2022/01/01 05:01:29;;;;;;;9.83;6.03;;;;;;;20.19;51.41;101130.03;4169642;28;20041;-50
2022/01/01 05:03:33;;;;;;;12.93;6.82;;;;;;;20.09;51.95;101124.44;4173446;28;21001;-48
2022/01/01 05:05:35;;;;;;;13.10;6.40;;;;;;;20.19;51.77;101129.19;4161889;28;20091;-50
2022/01/01 05:07:36;;;;;;;13.63;8.10;;;;;;;20.18;51.78;101117.25;4166798;28;20037;-48
2022/01/01 05:09:37;;;;;;;9.68;5.60;;;;;;;20.15;51.89;101112.22;4177505;28;20033;-49
2022/01/01 05:11:39;;;;;;;15.60;7.70;;;;;;;20.19;53.39;101118.91;4175415;28;20098;-50
2022/01/01 05:13:40;;;;;;;15.00;8.30;;;;;;;20.19;53.39;101113.34;4174564;28;20095;-46
2022/01/01 05:15:41;;;;;;;13.73;8.38;;;;;;;20.22;54.22;101101.72;4179963;28;20071;-46
2022/01/01 05:17:46;;;;;;;18.00;8.25;;;;;;;20.23;53.86;101100.59;4181738;28;20037;-45
2022/01/01 05:19:47;;;;;;;13.50;8.33;;;;;;;20.22;53.87;101098.94;4183227;28;20060;-48
2022/01/01 05:21:50;;;;;;;15.63;9.13;;;;;;;20.23;54.44;101106.16;4181977;28;20033;-50
2022/01/01 05:23:51;;;;;;;22.02;8.82;;;;;;;20.22;54.34;101098.94;4177044;28;20032;-50
2022/01/01 05:25:53;;;;;;;15.77;8.93;;;;;;;20.23;54.01;101108.09;4178906;28;20045;-51
2022/01/01 05:27:54;;;;;;;19.17;9.70;;;;;;;20.22;54.23;101114.75;4167356;28;20492;-47
2022/01/01 05:29:55;;;;;;;18.98;8.80;;;;;;;20.29;54.13;101118.94;4175485;28;20045;-46
2022/01/01 05:31:57;;;;;;;14.95;8.90;;;;;;;20.26;53.87;101108.41;4182073;28;20033;-48
2022/01/01 05:33:58;;;;;;;19.98;8.50;;;;;;;20.25;53.98;101106.72;4182235;28;20044;-51
2022/01/01 05:36:00;;;;;;;20.05;8.98;;;;;;;20.19;53.98;101107.78;4177708;28;20103;-47
2022/01/01 05:38:01;;;;;;;17.40;8.57;;;;;;;20.19;54.19;101113.34;4180739;28;20033;-48
2022/01/01 05:40:03;;;;;;;18.80;8.82;;;;;;;20.15;54.48;101105.84;4179198;28;20041;-53
2022/01/01 05:42:04;;;;;;;20.95;8.45;;;;;;;20.16;54.11;101088.06;4171349;28;20448;-53
2022/01/01 05:44:09;;;;;;;19.70;8.30;;;;;;;19.46;53.91;100966.09;4177534;28;20029;-48
2022/01/01 05:46:10;;;;;;;19.35;9.75;;;;;;;20.14;53.93;101057.78;4177186;28;20431;-53
2022/01/01 05:48:12;;;;;;;16.08;8.15;;;;;;;20.13;53.76;101036.66;4177236;28;20033;-53
2022/01/01 05:50:13;;;;;;;15.43;8.43;;;;;;;20.14;53.77;101043.03;4178271;28;20075;-52
2022/01/01 05:52:15;;;;;;;21.38;8.73;;;;;;;20.13;53.83;101041.38;4179667;28;20102;-51
2022/01/01 05:54:16;;;;;;;18.45;8.30;;;;;;;20.15;53.44;101040.00;4168162;28;20053;-49
2022/01/01 05:56:17;;;;;;;13.57;8.23;;;;;;;20.16;53.72;101047.25;4175244;28;20434;-49
2022/01/01 05:58:19;;;;;;;21.02;9.27;;;;;;;20.16;53.76;101049.16;4180193;28;20037;-50
2022/01/01 06:00:20;;;;;;;15.93;9.38;;;;;;;20.14;53.75;101063.31;4179792;28;20095;-52
2022/01/01 06:02:21;;;;;;;14.65;8.68;;;;;;;20.12;53.39;101073.88;4180272;28;20115;-51
2022/01/01 06:04:23;;;;;;;21.20;8.77;;;;;;;20.12;53.51;101082.22;4178587;28;20041;-50
2022/01/01 06:06:27;;;;;;;17.38;8.93;;;;;;;20.11;53.52;101099.16;4171401;28;20041;-51
2022/01/01 06:08:29;;;;;;;16.08;8.38;;;;;;;20.10;53.79;101089.97;4173720;28;20102;-52
2022/01/01 06:10:30;;;;;;;13.95;7.80;;;;;;;20.08;53.45;101078.31;4177233;28;20063;-52
2022/01/01 06:12:32;;;;;;;15.98;8.40;;;;;;;20.06;53.52;101069.41;4171380;28;20071;-50
2022/01/01 06:14:33;;;;;;;15.25;8.48;;;;;;;20.10;53.80;101061.38;4181156;28;20045;-48
2022/01/01 06:16:35;;;;;;;17.95;8.95;;;;;;;20.02;53.35;101026.59;4172796;28;20053;-51
2022/01/01 06:18:36;;;;;;;15.82;7.88;;;;;;;20.09;53.70;101018.03;4176715;28;20088;-49
2022/01/01 06:20:37;;;;;;;16.13;8.90;;;;;;;20.09;53.17;101018.88;4177625;28;20076;-50
2022/01/01 06:22:39;;;;;;;21.65;8.57;;;;;;;20.08;53.48;101019.16;4180947;28;20501;-51
2022/01/01 06:24:40;;;;;;;18.35;8.02;;;;;;;20.07;53.33;101021.09;4180559;28;20110;-50
2022/01/01 06:26:42;;;;;;;20.85;9.27;;;;;;;20.02;53.60;101023.81;4181150;28;20091;-50
2022/01/01 06:28:43;;;;;;;12.07;7.95;;;;;;;20.02;53.60;101032.16;4177697;28;20025;-48
2022/01/01 06:30:47;;;;;;;11.98;8.25;;;;;;;20.05;53.67;101038.00;4171019;28;20095;-50
2022/01/01 06:32:50;;;;;;;12.43;8.27;;;;;;;20.07;53.36;101043.31;4178116;28;20041;-49
2022/01/01 06:34:52;;;;;;;17.50;8.60;;;;;;;20.06;53.20;101047.19;4176631;28;20045;-49
2022/01/01 06:36:53;;;;;;;13.00;7.93;;;;;;;20.06;53.37;101036.06;4170509;28;20120;-47
2022/01/01 06:38:55;;;;;;;14.20;8.00;;;;;;;20.02;53.27;101035.81;4175373;28;20029;-49
2022/01/01 06:40:56;;;;;;;14.07;7.93;;;;;;;20.02;53.53;101043.28;4176177;28;20454;-54
2022/01/01 06:42:57;;;;;;;14.57;7.75;;;;;;;20.07;53.54;101054.44;4175525;28;20079;-49
2022/01/01 06:44:58;;;;;;;16.95;8.45;;;;;;;20.07;53.59;101043.31;4172808;28;20082;-51
2022/01/01 06:47:00;;;;;;;13.27;8.00;;;;;;;20.04;53.15;101021.63;4173402;28;20439;-50
2022/01/01 06:49:01;;;;;;;16.88;8.73;;;;;;;20.07;53.25;101026.66;4175875;28;20480;-47
2022/01/01 06:51:03;;;;;;;13.82;8.40;;;;;;;20.02;53.48;101040.50;4180348;28;20350;-49
2022/01/01 06:53:04;;;;;;;15.88;9.32;;;;;;;20.06;53.52;101066.63;4176976;28;20037;-47
2022/01/01 06:55:06;;;;;;;14.73;8.13;;;;;;;20.01;53.47;101061.88;4173406;28;20079;-51
2022/01/01 06:57:07;;;;;;;16.88;8.18;;;;;;;20.03;53.55;101081.91;4171464;28;20037;-49
2022/01/01 06:59:09;;;;;;;13.80;8.27;;;;;;;20.03;53.58;101093.03;4179241;28;20036;-50
2022/01/01 07:01:11;;;;;;;11.68;7.93;;;;;;;20.05;53.52;101089.97;4176549;28;20037;-48
2022/01/01 07:03:12;;;;;;;12.77;7.43;;;;;;;20.03;53.46;101064.41;4178788;28;20102;-49
2022/01/01 07:05:15;;;;;;;10.73;7.57;;;;;;;20.05;53.69;101053.84;4173314;28;20095;-49
2022/01/01 07:07:16;;;;;;;17.55;7.95;;;;;;;20.00;53.62;101042.72;4179460;28;20095;-53
2022/01/01 07:09:18;;;;;;;11.13;7.57;;;;;;;20.05;53.81;101056.63;4177692;28;20049;-53
2022/01/01 07:11:19;;;;;;;15.98;8.05;;;;;;;20.06;53.80;101072.19;4172136;28;20078;-55
2022/01/01 07:13:20;;;;;;;13.70;7.82;;;;;;;20.03;53.82;101059.69;4173922;28;20099;-47
2022/01/01 07:15:22;;;;;;;12.73;8.50;;;;;;;20.05;53.65;101062.19;4177903;28;20075;-48
2022/01/01 07:17:23;;;;;;;15.32;8.02;;;;;;;20.06;53.49;101073.00;4179209;28;20032;-52
2022/01/01 07:19:24;;;;;;;14.93;7.75;;;;;;;20.04;53.63;101068.84;4179729;28;20041;-50
2022/01/01 07:21:26;;;;;;;12.15;7.53;;;;;;;20.03;53.70;101070.81;4179182;28;20028;-50
2022/01/01 07:23:28;;;;;;;12.27;7.75;;;;;;;20.03;53.92;101065.25;4176336;28;20045;-49
2022/01/01 07:25:29;;;;;;;12.55;7.47;;;;;;;20.02;53.45;101058.03;4180602;28;20094;-48
2022/01/01 07:27:31;;;;;;;13.85;8.23;;;;;;;19.99;53.64;101046.63;4177884;28;20025;-50
2022/01/01 07:29:34;;;;;;;11.07;7.85;;;;;;;20.03;53.65;101047.75;4179988;28;20041;-47
2022/01/01 07:31:35;;;;;;;15.43;8.35;;;;;;;20.03;53.91;101048.56;4174625;28;20041;-49
2022/01/01 07:33:37;;;;;;;14.30;8.60;;;;;;;20.05;54.04;101039.97;4176646;28;20443;-50
2022/01/01 07:35:38;;;;;;;13.05;8.10;;;;;;;20.04;54.16;101043.84;4176389;28;20081;-51
2022/01/01 07:37:40;;;;;;;12.85;7.82;;;;;;;20.04;54.19;101043.84;4179095;28;20391;-53
2022/01/01 07:39:44;;;;;;;15.30;8.20;;;;;;;20.04;53.82;101053.03;4174840;28;20029;-49
2022/01/01 07:41:46;;;;;;;11.93;7.65;;;;;;;19.99;54.15;101035.50;4173226;28;20434;-48
2022/01/01 07:43:47;;;;;;;17.10;8.02;;;;;;;20.06;54.29;101036.06;4173726;28;20099;-50
2022/01/01 07:45:49;;;;;;;12.68;7.43;;;;;;;20.06;54.23;101036.06;4175733;28;20098;-50
2022/01/01 07:47:50;;;;;;;13.45;7.35;;;;;;;20.06;54.37;101038.84;4177551;28;20045;-51
2022/01/01 07:49:52;;;;;;;14.50;8.45;;;;;;;20.02;54.28;101029.38;4178422;28;20106;-47
2022/01/01 07:51:53;;;;;;;16.80;9.18;;;;;;;20.02;54.23;101024.69;4170728;28;20033;-53
2022/01/01 07:53:54;;;;;;;14.57;8.07;;;;;;;20.03;54.39;101026.34;4178679;28;20037;-49
2022/01/01 07:55:55;;;;;;;15.45;8.38;;;;;;;20.02;54.23;101015.50;4179834;28;20424;-48
2022/01/01 07:57:57;;;;;;;10.23;8.00;;;;;;;20.03;53.91;101026.34;4180433;28;20030;-51
2022/01/01 07:59:58;;;;;;;16.55;8.00;;;;;;;20.03;54.17;101025.53;4175049;28;20103;-48
2022/01/01 08:01:59;;;;;;;10.02;8.00;;;;;;;20.03;54.07;101025.53;4175033;28;20033;-50
2022/01/01 08:04:02;;;;;;;10.70;7.65;;;;;;;20.02;54.17;101018.28;4176791;28;20114;-51
2022/01/01 08:06:03;;;;;;;13.25;8.02;;;;;;;20.03;54.11;101031.09;4172542;28;20041;-51
2022/01/01 08:08:05;;;;;;;18.20;8.02;;;;;;;20.03;54.21;101025.53;4179834;28;20028;-51
2022/01/01 08:10:07;;;;;;;14.80;7.75;;;;;;;20.03;54.21;101039.41;4174407;28;20080;-52
2022/01/01 08:12:09;;;;;;;12.60;8.15;;;;;;;20.05;54.25;101045.53;4170099;28;20480;-49
2022/01/01 08:14:10;;;;;;;13.20;8.18;;;;;;;20.05;54.30;101037.19;4176237;28;20048;-52
2022/01/01 08:16:12;;;;;;;15.90;8.23;;;;;;;20.07;54.43;101034.97;4177727;28;20041;-49
2022/01/01 08:18:13;;;;;;;18.45;11.55;;;;;;;20.06;54.39;101025.78;4179449;28;20530;-52
2022/01/01 08:20:17;;;;;;;19.25;11.63;;;;;;;20.05;54.38;101023.28;4172856;28;20041;-51
2022/01/01 08:22:19;;;;;;;16.08;10.40;;;;;;;20.01;54.48;101011.88;4169181;28;20183;-49
2022/01/01 08:24:21;;;;;;;19.23;13.40;;;;;;;20.06;54.22;101013.84;4173478;28;20029;-51
2022/01/01 08:26:25;;;;;;;16.40;10.60;;;;;;;20.05;54.30;100996.34;4169497;28;20091;-55
2022/01/01 08:28:27;;;;;;;15.60;9.43;;;;;;;20.06;54.39;101011.06;4175686;28;20032;-51
2022/01/01 08:30:31;;;;;;;17.65;11.48;;;;;;;20.05;54.81;101001.06;4176784;28;20037;-53
2022/01/01 08:32:32;;;;;;;15.15;9.55;;;;;;;20.05;54.40;100995.50;4163523;28;20041;-54
2022/01/01 08:34:34;;;;;;;16.05;11.70;;;;;;;20.05;54.46;100995.50;4172028;28;20053;-53
2022/01/01 08:36:36;;;;;;;16.90;11.82;;;;;;;20.04;54.61;100996.63;4171124;28;20041;-54
2022/01/01 08:38:37;;;;;;;18.80;10.80;;;;;;;20.03;54.72;100997.75;4171629;28;20095;-55
2022/01/01 08:40:38;;;;;;;16.75;11.07;;;;;;;20.05;54.52;101001.06;4178061;28;20049;-53
2022/01/01 08:42:40;;;;;;;17.20;10.35;;;;;;;20.05;54.63;100992.75;4173990;28;20554;-55
2022/01/01 08:44:43;;;;;;;16.20;11.48;;;;;;;20.00;54.61;100976.06;4178370;28;20045;-51
2022/01/01 08:46:44;;;;;;;18.05;11.55;;;;;;;20.04;54.57;100982.75;4177662;28;20037;-50
2022/01/01 08:48:46;;;;;;;18.45;12.50;;;;;;;20.00;54.71;100979.66;4179643;28;20424;-56
2022/01/01 08:50:47;;;;;;;18.77;13.57;;;;;;;20.05;54.42;100987.19;4179614;28;20033;-55
2022/01/01 08:52:49;;;;;;;13.77;11.02;;;;;;;20.03;54.51;100979.13;4182329;28;20099;-52
2022/01/01 08:54:55;;;;;;;21.27;11.75;;;;;;;20.04;54.73;100971.63;4181271;28;20079;-54
2022/01/01 08:56:56;;;;;;;19.02;11.85;;;;;;;20.05;54.81;100967.75;4181899;28;20056;-54
2022/01/01 08:58:58;;;;;;;18.95;12.90;;;;;;;20.06;54.53;100958.28;4172740;28;20392;-55
2022/01/01 09:00:59;;;;;;;17.85;13.30;;;;;;;20.04;54.98;100961.34;4167648;28;20423;-54
2022/01/01 09:03:00;;;;;;;19.42;13.27;;;;;;;20.02;54.83;100951.59;4180208;28;20643;-51
2022/01/01 09:05:03;;;;;;;17.20;12.23;;;;;;;20.04;54.64;100949.41;4175010;28;20042;-52
2022/01/01 09:07:05;;;;;;;17.80;13.07;;;;;;;20.05;54.68;100943.56;4167051;28;20103;-53
2022/01/01 09:09:06;;;;;;;19.20;14.25;;;;;;;20.06;54.97;100947.19;4166828;28;20118;-55
2022/01/01 09:11:09;;;;;;;18.92;13.43;;;;;;;20.05;55.07;100935.22;4166736;28;20033;-54
2022/01/01 09:13:11;;;;;;;19.30;13.93;;;;;;;20.00;54.71;100926.91;4166425;28;20053;-54
2022/01/01 09:15:12;;;;;;;19.40;13.60;;;;;;;20.03;54.90;100926.34;4182649;28;20041;-53
2022/01/01 09:17:14;;;;;;;18.38;13.20;;;;;;;20.03;55.19;100920.81;4180232;28;20454;-54
2022/01/01 09:19:15;;;;;;;20.80;13.40;;;;;;;20.04;55.17;100922.47;4182806;28;20037;-57
2022/01/01 09:21:17;;;;;;;21.77;13.73;;;;;;;20.05;54.93;100917.72;4182744;28;20029;-52
2022/01/01 09:23:19;;;;;;;20.33;14.07;;;;;;;20.06;55.01;100919.41;4182909;28;20033;-53
2022/01/01 09:25:21;;;;;;;20.30;13.98;;;;;;;20.03;54.89;100909.69;4180599;28;20048;-50